Archival Weather

Chicago O'Hare International

Chicago, Illinois (KORD)

Report from: Sunday, February 5, 2023 1:51 AM CST
Current time: Friday, June 21, 2024 6:08 PM CDT

Current weather – Weather history – Daily summaries
Weather forecast

Temperature3.3°C (37.9°F)
Wind chill-1.5°C (29.2°F)
Dew point-3.3°C (26.1°F)
Winds 13 kts (6.7 m/s, 15 mph) Southwest (220°)
Wind gusts 22 kts (11.3 m/s, 25.3 mph)
Peak wind 26 kts (13.4 m/s, 29.9 mph) South-Southwest (210°) at 07:16
Visibility10 mi. (16.1 km)
Clouds Scattered clouds 17,000 ft. (5,182 m)
Ceiling: Broken clouds 25,000 ft. (7,620 m)
Altimeter29.86 in.Hg (1011 mB)
Relative humidity62 %
Density altitude-1,288 ft. (-392 m)
Sea-level pressure101.2 kPa (1012 mB, 29.87 in.Hg)
Remarks System requires maintenance
Automated weather observing station with precipitation discriminator
Flight conditions Visual Meteorological Conditions
Raw dataKORD 050751Z 22013G22KT 10SM SCT170 BKN250 03/M03 A2986 RMK AO2 PK WND 21026/0716 SLP116 T00331033 $
An error has occurred. This application may no longer respond until reloaded. Reload 🗙